createdAt,value
2022-12-18T00:00:10.180Z,0.88715
2022-12-18T00:05:11.904Z,0.88715
2022-12-18T00:10:15.500Z,0
2022-12-18T00:15:17.263Z,0.88715
2022-12-18T00:20:18.867Z,0.88715
2022-12-18T00:25:20.477Z,0.88715
2022-12-18T00:30:22.170Z,0.88715
2022-12-18T00:35:24.337Z,0.88715
2022-12-18T00:40:25.907Z,0.88715
2022-12-18T00:45:27.580Z,0.88715
2022-12-18T00:50:29.435Z,0
2022-12-18T00:55:31.032Z,0.88715
2022-12-18T01:00:32.697Z,0.88715
2022-12-18T01:05:34.515Z,0
2022-12-18T01:10:36.436Z,0.88715
2022-12-18T01:15:37.987Z,0
2022-12-18T01:20:39.606Z,0
2022-12-18T01:25:41.354Z,0
2022-12-18T01:30:42.963Z,0.88715
2022-12-18T01:35:45.105Z,0.88715
2022-12-18T01:40:46.807Z,0.88715
2022-12-18T01:45:48.412Z,0.88715
2022-12-18T01:50:50.070Z,0.88715
2022-12-18T01:55:51.604Z,0.88715
2022-12-18T02:00:53.204Z,0.88715
2022-12-18T02:05:55.152Z,0
2022-12-18T02:10:57.046Z,0.88715
2022-12-18T02:15:58.967Z,0
2022-12-18T02:21:00.773Z,0.88715
2022-12-18T02:26:02.306Z,0
2022-12-18T02:31:04.161Z,0.88715
2022-12-18T02:36:06.007Z,0.88715
2022-12-18T02:41:07.575Z,0.88715
2022-12-18T02:46:09.250Z,1.16185
2022-12-18T02:51:10.801Z,1.53075
2022-12-18T02:56:12.520Z,7.7089
2022-12-18T03:01:14.202Z,8.4467
2022-12-18T03:06:16.194Z,15.97115
2022-12-18T03:11:17.749Z,32.60595
2022-12-18T03:16:19.341Z,53.0952
2022-12-18T03:21:20.892Z,80.2418
2022-12-18T03:26:22.524Z,111.4273
2022-12-18T03:31:24.677Z,142.3732
2022-12-18T03:36:26.894Z,166.40315
2022-12-18T03:41:28.939Z,191.59495
2022-12-18T03:46:30.979Z,210.0001
2022-12-18T03:51:32.983Z,234.823
2022-12-18T03:56:34.862Z,255.7363
2022-12-18T04:01:37.176Z,274.51035
2022-12-18T04:06:39.524Z,298.11625
2022-12-18T04:11:41.564Z,319.76735
2022-12-18T04:16:43.412Z,331.9392
2022-12-18T04:21:45.553Z,346.0107
2022-12-18T04:26:47.324Z,371.51625
2022-12-18T04:31:49.102Z,406.6855
2022-12-18T04:36:51.298Z,424.6666
2022-12-18T04:41:53.092Z,407.86635
2022-12-18T04:46:54.870Z,437.37465
2022-12-18T04:51:57.620Z,457.73645
2022-12-18T04:56:59.641Z,477.94995
2022-12-18T05:02:01.441Z,500.33885
2022-12-18T05:07:03.430Z,511.60745
2022-12-18T05:12:05.291Z,522.7106
2022-12-18T05:17:06.841Z,570.64305
2022-12-18T05:22:08.727Z,583.2598
2022-12-18T05:27:10.313Z,554.86375
2022-12-18T05:32:11.836Z,483.0209
2022-12-18T05:37:13.726Z,491.1247
2022-12-18T05:42:15.422Z,541.6706
2022-12-18T05:47:17.105Z,582.0245
2022-12-18T05:52:19.029Z,612.06755
2022-12-18T05:57:21.065Z,642.76245
2022-12-18T06:02:23.429Z,670.67235
2022-12-18T06:07:25.637Z,692.59735
2022-12-18T06:12:27.626Z,711.14465
2022-12-18T06:17:29.632Z,731.8844
2022-12-18T06:22:31.560Z,748.0021
2022-12-18T06:27:33.462Z,768.09015
2022-12-18T06:32:35.367Z,781.245
2022-12-18T06:37:37.475Z,799.19975
2022-12-18T06:42:39.289Z,816.0879
2022-12-18T06:47:41.248Z,833.4502
2022-12-18T06:52:43.124Z,851.99755
2022-12-18T06:57:45.014Z,861.7748
2022-12-18T07:02:47.047Z,870.78185
2022-12-18T07:07:49.201Z,890.04025
2022-12-18T07:12:51.033Z,911.0764
2022-12-18T07:17:52.907Z,919.78705
2022-12-18T07:22:56.345Z,949.1191
2022-12-18T07:27:58.594Z,960.91115
2022-12-18T07:33:00.367Z,961.3257
2022-12-18T07:38:02.119Z,941.001
2022-12-18T07:43:03.845Z,954.7501
2022-12-18T07:48:05.455Z,1000.6744
2022-12-18T07:53:07.275Z,982.7195
2022-12-18T07:58:09.079Z,1022.18475
2022-12-18T08:03:10.680Z,1029.88845
2022-12-18T08:08:14.080Z,1056.55405
2022-12-18T08:13:15.772Z,1093.7676
2022-12-18T08:18:17.521Z,1106.92265
2022-12-18T08:23:19.127Z,1119.248
2022-12-18T08:28:20.775Z,1090.9823
2022-12-18T08:33:22.610Z,1090.92295
2022-12-18T08:38:24.731Z,1099.9893
2022-12-18T08:43:26.510Z,1135.84
2022-12-18T08:48:28.349Z,1153.61715
2022-12-18T08:53:35.346Z,1157.7652
2022-12-18T08:58:37.539Z,1195.0973
2022-12-18T09:03:39.761Z,1226.5037
2022-12-18T09:08:42.341Z,1235.6887
2022-12-18T09:13:44.401Z,1245.4071
2022-12-18T09:18:45.889Z,1274.73925
2022-12-18T09:23:47.367Z,1276.5173
2022-12-18T09:28:49.206Z,1288.54645
2022-12-18T09:33:50.700Z,1296.42785
2022-12-18T09:38:52.532Z,1324.575
2022-12-18T09:43:54.040Z,1350.35195
2022-12-18T09:48:55.502Z,1345.78895
2022-12-18T09:53:57.271Z,1335.59665
2022-12-18T09:58:58.797Z,1332.8707
2022-12-18T10:04:00.370Z,1348.33695
2022-12-18T10:09:02.455Z,1330.9746
2022-12-18T10:14:03.950Z,1372.81025
2022-12-18T10:19:05.532Z,1423.2975
2022-12-18T10:24:07.194Z,1412.0389
2022-12-18T10:29:08.685Z,1448.65975
2022-12-18T10:34:10.134Z,1446.9417
2022-12-18T10:39:12.228Z,1584.89265
2022-12-18T10:44:13.943Z,704.02545
2022-12-18T10:49:15.600Z,1575.5302
2022-12-18T10:54:17.145Z,902.72665
2022-12-18T10:59:18.735Z,1550.2874
2022-12-18T11:04:20.154Z,1521.31075
2022-12-18T11:09:22.339Z,1711.34845
2022-12-18T11:14:23.980Z,1732.62265
2022-12-18T11:19:25.873Z,1751.6442
2022-12-18T11:24:27.440Z,1722.0754
2022-12-18T11:29:29.240Z,1773.807
2022-12-18T11:34:31.300Z,1735.0532
2022-12-18T11:39:33.521Z,1657.66345
2022-12-18T11:44:34.963Z,1674.61115
2022-12-18T11:49:36.768Z,1703.94365
2022-12-18T11:54:38.871Z,1675.20375
2022-12-18T11:59:40.531Z,1701.39595
2022-12-18T12:04:42.163Z,1725.98815
2022-12-18T12:09:44.087Z,930.6775
2022-12-18T12:14:45.777Z,827.1681
2022-12-18T12:19:47.594Z,759.1723
2022-12-18T12:24:49.232Z,1266.80335
2022-12-18T12:29:51.010Z,667.2017
2022-12-18T12:34:57.868Z,647.37795
2022-12-18T12:40:15.280Z,670.0273
2022-12-18T12:45:29.158Z,800.65825
2022-12-18T12:50:30.924Z,1801.36415
2022-12-18T12:55:33.460Z,881.6017
2022-12-18T13:00:35.357Z,614.72845
2022-12-18T13:05:37.323Z,575.04295
2022-12-18T13:10:39.212Z,487.9385
2022-12-18T13:15:41.639Z,529.3276
2022-12-18T13:20:45.625Z,463.9484
2022-12-18T13:25:50.759Z,429.42195
2022-12-18T13:30:53.767Z,443.08655
2022-12-18T13:35:58.371Z,415.03485
2022-12-18T13:41:00.828Z,455.3117
2022-12-18T13:46:02.643Z,522.59055
2022-12-18T13:51:04.551Z,581.86575
2022-12-18T13:56:06.339Z,612.24115
2022-12-18T14:01:09.233Z,531.0961
2022-12-18T14:06:11.114Z,531.07525
2022-12-18T14:11:12.862Z,506.3075
2022-12-18T14:16:15.797Z,422.8369
2022-12-18T14:21:17.621Z,400.65145
2022-12-18T14:26:19.692Z,343.8844
2022-12-18T14:31:21.757Z,365.8321
2022-12-18T14:36:23.488Z,466.2494
2022-12-18T14:41:25.449Z,780.19775
2022-12-18T14:46:27.023Z,944.6382
2022-12-18T14:51:29.202Z,337.64925
2022-12-18T14:56:31.148Z,353.2895
2022-12-18T15:01:33.208Z,448.0667
2022-12-18T15:06:35.315Z,445.2981
2022-12-18T15:11:37.327Z,411.344
2022-12-18T15:16:43.385Z,379.6033
2022-12-18T15:21:48.180Z,725.0356
2022-12-18T15:26:49.980Z,388.05
2022-12-18T15:31:51.977Z,362.13755
2022-12-18T15:36:53.912Z,355.9821
2022-12-18T15:41:56.075Z,322.7658
2022-12-18T15:46:57.800Z,296.94465
2022-12-18T15:51:59.720Z,245.04745
2022-12-18T15:57:01.407Z,186.04985
2022-12-18T16:02:03.328Z,151.5804
2022-12-18T16:07:14.854Z,133.50615
2022-12-18T16:12:17.051Z,114.0476
2022-12-18T16:17:18.496Z,105.3423
2022-12-18T16:22:20.292Z,96.73015
2022-12-18T16:27:22.165Z,82.2346
2022-12-18T16:32:23.723Z,68.08895
2022-12-18T16:37:26.849Z,39.3013
2022-12-18T16:42:29.267Z,31.7027
2022-12-18T16:47:30.951Z,26.98115
2022-12-18T16:52:32.762Z,14.51455
2022-12-18T16:57:34.711Z,8.576
2022-12-18T17:02:36.433Z,4.0295
2022-12-18T17:07:38.206Z,2.87705
2022-12-18T17:12:40.411Z,2.50815
2022-12-18T17:17:42.184Z,0.4148
2022-12-18T17:22:43.986Z,1.16185
2022-12-18T17:27:46.130Z,0.88715
2022-12-18T17:32:47.910Z,0.88715
2022-12-18T17:37:49.539Z,0.88715
2022-12-18T17:42:51.518Z,0.88715
2022-12-18T17:47:59.644Z,0.88715
2022-12-18T17:53:01.372Z,0
2022-12-18T17:58:02.935Z,0
2022-12-18T18:03:04.652Z,0
2022-12-18T18:08:06.465Z,0.88715
2022-12-18T18:13:08.352Z,0
2022-12-18T18:18:09.849Z,0
2022-12-18T18:23:13.008Z,0
2022-12-18T18:28:14.787Z,0.88715
2022-12-18T18:33:16.621Z,0
2022-12-18T18:38:18.105Z,0
2022-12-18T18:43:20.559Z,0
2022-12-18T18:48:22.501Z,0
2022-12-18T18:53:24.889Z,0
2022-12-18T18:58:26.830Z,0
2022-12-18T19:03:28.713Z,0
2022-12-18T19:08:30.210Z,0
2022-12-18T19:13:32.308Z,0
2022-12-18T19:18:34.233Z,0
2022-12-18T19:23:35.792Z,0
2022-12-18T19:28:37.610Z,0
2022-12-18T19:33:43.780Z,0
2022-12-18T19:38:45.823Z,0
2022-12-18T19:43:47.959Z,0
2022-12-18T19:48:50.066Z,0
2022-12-18T19:53:55.118Z,0
2022-12-18T19:59:00.149Z,0
2022-12-18T20:04:02.346Z,0.88715
2022-12-18T20:09:05.113Z,0.88715
2022-12-18T20:14:07.155Z,0
2022-12-18T20:19:08.734Z,0.88715
2022-12-18T20:24:10.592Z,0
2022-12-18T20:29:12.216Z,0
2022-12-18T20:34:13.717Z,0.88715
2022-12-18T20:39:15.620Z,0
2022-12-18T20:44:22.283Z,0
2022-12-18T20:49:24.948Z,0.88715
2022-12-18T20:54:26.670Z,0
2022-12-18T20:59:28.424Z,0
2022-12-18T21:09:40.402Z,0
2022-12-18T21:14:42.231Z,0
2022-12-18T21:19:43.688Z,0
2022-12-18T21:24:45.651Z,0
2022-12-18T21:29:47.649Z,0.88715
2022-12-18T21:34:49.560Z,0
2022-12-18T21:39:51.259Z,0
2022-12-18T21:44:53.322Z,0
2022-12-18T21:49:55.063Z,0
2022-12-18T21:54:56.801Z,0
2022-12-18T21:59:58.556Z,0
2022-12-18T22:05:00.260Z,0
2022-12-18T22:10:02.404Z,0
2022-12-18T22:15:04.663Z,0
2022-12-18T22:20:06.185Z,0
2022-12-18T22:25:07.631Z,0
2022-12-18T22:30:09.412Z,0
2022-12-18T22:35:15.853Z,0
2022-12-18T22:40:25.383Z,0
2022-12-18T22:45:27.988Z,0
2022-12-18T22:50:29.629Z,0
2022-12-18T22:55:31.429Z,0
2022-12-18T23:00:33.352Z,0
2022-12-18T23:05:35.074Z,0
2022-12-18T23:10:36.724Z,0.88715
2022-12-18T23:15:38.949Z,0
2022-12-18T23:20:41.014Z,0
2022-12-18T23:25:43.349Z,0
2022-12-18T23:30:45.076Z,0
2022-12-18T23:35:46.687Z,0
2022-12-18T23:40:48.169Z,0
2022-12-18T23:45:55.473Z,0
2022-12-18T23:50:57.587Z,0
2022-12-18T23:55:59.408Z,0
